Time;durP1;ratioP1;P1;durP2;ratioP2;P2;SDS_P1;SDS_P2;PMS_P1;PMS_P2;Temp;Humidity;BMP_temperature;BMP_pressure;BME280_temperature;BME280_humidity;BME280_pressure;Samples;Min_cycle;Max_cycle;Signal;HPM_P1;HPM_P2
2022/01/02 00:03:03;;;;;;;5.50;2.63;;;;;;;10.20;75.83;101652.97;10453436;28;20467;-82
2022/01/02 00:08:05;;;;;;;6.80;2.58;;;;;;;10.18;76.08;101670.28;10470629;28;20032;-82
2022/01/02 00:13:06;;;;;;;6.20;2.60;;;;;;;10.26;75.46;101676.88;10485886;28;20519;-82
2022/01/02 00:18:12;;;;;;;4.43;2.20;;;;;;;10.15;75.94;101681.44;10453341;28;20033;-82
2022/01/02 00:23:19;;;;;;;4.57;2.50;;;;;;;10.26;75.66;101687.34;10452111;28;20040;-82
2022/01/02 00:28:20;;;;;;;5.68;2.65;;;;;;;10.28;75.41;101673.53;10452325;28;20040;-81
2022/01/02 00:33:21;;;;;;;5.18;2.42;;;;;;;10.29;75.42;101677.06;10453041;28;20598;-82
2022/01/02 00:38:21;;;;;;;4.65;2.30;;;;;;;10.28;75.19;101668.31;10470064;28;20084;-82
2022/01/02 00:43:45;;;;;;;5.47;2.85;;;;;;;10.30;75.21;101673.66;10469795;28;20047;-82
2022/01/02 00:48:46;;;;;;;8.32;2.53;;;;;;;10.29;75.54;101680.59;10452063;28;20036;-82
2022/01/02 00:53:46;;;;;;;3.85;2.22;;;;;;;10.35;75.10;101667.00;10453487;28;20048;-82
2022/01/02 00:58:54;;;;;;;5.45;2.30;;;;;;;10.37;75.67;101673.22;10452114;28;20033;-81
2022/01/02 01:03:55;;;;;;;6.60;2.40;;;;;;;10.39;75.07;101673.31;10410478;28;20038;-82
2022/01/02 01:08:58;;;;;;;11.32;2.95;;;;;;;10.40;75.78;101669.91;10413536;28;20384;-82
2022/01/02 01:13:59;;;;;;;5.28;2.33;;;;;;;10.36;75.74;101665.25;10453478;28;20033;-82
2022/01/02 01:19:02;;;;;;;7.70;2.97;;;;;;;10.37;76.56;101660.13;10417817;28;20507;-82
2022/01/02 01:24:02;;;;;;;6.43;3.60;;;;;;;10.20;76.91;101660.81;10452685;28;20538;-83
2022/01/02 01:29:03;;;;;;;6.55;2.83;;;;;;;10.11;77.76;101658.50;10467342;28;20116;-83
2022/01/02 01:34:03;;;;;;;13.00;3.47;;;;;;;10.11;77.43;101655.91;10452938;28;20397;-82
2022/01/02 01:39:04;;;;;;;4.75;2.50;;;;;;;9.95;78.53;101657.56;10455991;28;20124;-82
2022/01/02 01:44:22;;;;;;;5.82;2.53;;;;;;;9.88;78.79;101660.59;10459599;28;20047;-82
2022/01/02 01:49:27;;;;;;;8.45;2.95;;;;;;;9.78;80.23;101635.59;10489494;28;20377;-82
2022/01/02 01:54:27;;;;;;;5.82;2.88;;;;;;;9.67;81.03;101640.13;10452474;28;20032;-82
2022/01/02 01:59:28;;;;;;;6.65;3.50;;;;;;;9.42;82.86;101626.28;10441916;28;20040;-81
2022/01/02 02:04:28;;;;;;;10.95;3.55;;;;;;;9.20;85.27;101648.41;10474746;28;20044;-81
2022/01/02 02:09:39;;;;;;;6.25;4.25;;;;;;;9.05;86.15;101638.75;10491193;28;20064;-81
2022/01/02 02:14:40;;;;;;;12.23;3.97;;;;;;;8.93;86.85;101625.81;10458477;28;20067;-81
2022/01/02 02:19:41;;;;;;;9.82;4.22;;;;;;;8.88;87.46;101613.22;10423296;28;20127;-81
2022/01/02 02:24:41;;;;;;;21.75;4.95;;;;;;;8.80;87.93;101591.84;10457366;28;20056;-83
2022/01/02 02:29:42;;;;;;;8.75;3.25;;;;;;;8.70;88.87;101534.63;10455983;28;20090;-82
2022/01/02 02:34:44;;;;;;;16.80;4.60;;;;;;;8.64;89.52;101564.75;10458556;28;20354;-81
2022/01/02 02:39:44;;;;;;;11.88;4.75;;;;;;;8.61;89.98;101576.66;10456984;28;20497;-81
2022/01/02 02:44:46;;;;;;;11.50;4.03;;;;;;;8.52;90.25;101567.41;10441355;28;20032;-81
2022/01/02 02:49:47;;;;;;;;;;;;;;;8.53;90.63;101563.13;10455749;28;20434;-81
2022/01/02 02:54:48;;;;;;;7.43;4.20;;;;;;;8.49;90.85;101558.50;10438782;28;19955;-82
2022/01/02 02:59:49;;;;;;;13.77;6.43;;;;;;;8.48;91.17;101541.00;10455821;28;20029;-81
2022/01/02 03:04:49;;;;;;;21.00;5.25;;;;;;;8.55;90.87;101537.13;10490003;28;20079;-81
2022/01/02 03:09:52;;;;;;;6.32;3.92;;;;;;;8.57;91.33;101543.34;10472519;28;20056;-81
2022/01/02 03:14:52;;;;;;;;;;;;;;;8.66;90.94;101538.72;10455019;28;20033;-81
2022/01/02 03:19:52;;;;;;;10.65;4.40;;;;;;;8.78;90.57;101536.03;10438412;28;19916;-82
2022/01/02 03:24:53;;;;;;;14.90;5.13;;;;;;;8.89;90.25;101515.84;10455621;28;20057;-81
2022/01/02 03:29:54;;;;;;;7.28;4.20;;;;;;;9.04;89.45;101509.00;10453403;28;20064;-81
2022/01/02 03:34:54;;;;;;;11.73;4.45;;;;;;;9.12;88.79;101491.22;10455841;28;20614;-82
2022/01/02 03:39:55;;;;;;;10.65;4.57;;;;;;;9.17;88.19;101497.66;10453444;28;20068;-82
2022/01/02 03:44:58;;;;;;;8.77;3.38;;;;;;;9.16;88.00;101492.31;10488328;28;20044;-82
2022/01/02 03:49:59;;;;;;;12.07;4.82;;;;;;;9.21;88.06;101494.41;10453077;28;20218;-82
2022/01/02 03:54:59;;;;;;;12.32;3.80;;;;;;;9.17;88.62;101494.13;10454142;28;20170;-82
2022/01/02 04:00:00;;;;;;;23.50;6.00;;;;;;;9.23;87.99;101499.72;10436668;28;20477;-82
2022/01/02 04:05:01;;;;;;;8.80;3.65;;;;;;;9.30;87.97;101491.47;10452973;28;20028;-82
2022/01/02 04:10:06;;;;;;;9.13;4.43;;;;;;;9.28;87.93;101473.91;10453233;28;20041;-82
2022/01/02 04:15:08;;;;;;;6.80;3.30;;;;;;;9.17;88.47;101470.59;10485225;28;20033;-82
2022/01/02 04:20:10;;;;;;;10.13;4.03;;;;;;;9.17;88.74;101462.78;10468873;28;20031;-83
2022/01/02 04:25:11;;;;;;;8.30;4.35;;;;;;;9.20;88.94;101462.97;10435996;28;20055;-82
2022/01/02 04:30:12;;;;;;;10.20;4.18;;;;;;;9.18;89.09;101455.06;10451710;28;20058;-82
2022/01/02 04:35:13;;;;;;;16.52;7.78;;;;;;;9.09;89.51;101449.25;10451355;28;20135;-82
2022/01/02 04:40:13;;;;;;;9.98;3.92;;;;;;;9.18;88.74;101434.16;10452244;28;20151;-82
2022/01/02 04:45:14;;;;;;;10.48;4.55;;;;;;;9.19;88.51;101425.50;10453291;28;20420;-82
2022/01/02 04:50:14;;;;;;;13.73;4.88;;;;;;;9.18;88.62;101409.72;10485962;28;20033;-82
2022/01/02 04:55:15;;;;;;;12.25;4.90;;;;;;;9.17;88.92;101403.63;10452163;28;20061;-82
2022/01/02 05:00:15;;;;;;;11.20;3.88;;;;;;;9.11;88.84;101385.84;10484060;28;20028;-82
2022/01/02 05:05:16;;;;;;;11.48;5.03;;;;;;;9.19;88.87;101388.03;10436391;28;20103;-82
2022/01/02 05:10:16;;;;;;;12.68;5.00;;;;;;;9.22;88.46;101381.31;10450209;28;20033;-82
2022/01/02 05:15:17;;;;;;;11.85;5.15;;;;;;;9.27;88.12;101376.34;10492635;28;20123;-82
2022/01/02 05:20:17;;;;;;;9.82;3.88;;;;;;;9.27;88.00;101371.13;10458948;28;20028;-82
2022/01/02 05:25:18;;;;;;;13.07;6.00;;;;;;;9.30;87.64;101378.25;10442773;28;20029;-80
2022/01/02 05:30:19;;;;;;;12.32;4.90;;;;;;;9.27;87.90;101373.72;10460835;28;20489;-80
2022/01/02 05:35:20;;;;;;;12.93;3.95;;;;;;;9.24;87.87;101369.25;10460815;28;20120;-81
2022/01/02 05:40:21;;;;;;;15.95;4.72;;;;;;;9.18;88.08;101340.13;10458210;28;20044;-81
2022/01/02 05:45:24;;;;;;;13.10;4.50;;;;;;;9.19;88.12;101327.97;10459523;28;20033;-82
2022/01/02 05:50:25;;;;;;;10.25;3.75;;;;;;;9.10;88.21;101329.22;10473708;28;20036;-82
2022/01/02 05:55:25;;;;;;;11.70;4.28;;;;;;;9.14;88.80;101309.41;10458753;28;20028;-81
2022/01/02 06:00:36;;;;;;;17.80;4.63;;;;;;;9.15;88.33;101320.75;10455316;28;20473;-82
2022/01/02 06:05:37;;;;;;;6.97;3.75;;;;;;;9.25;87.88;101300.53;10458593;28;20386;-83
2022/01/02 06:10:37;;;;;;;10.18;4.28;;;;;;;9.22;87.77;101307.25;10456892;28;20869;-81
2022/01/02 06:15:38;;;;;;;10.32;4.60;;;;;;;9.22;87.84;101302.03;10457989;28;20064;-81
2022/01/02 06:20:38;;;;;;;9.52;4.25;;;;;;;9.36;85.67;101290.69;10456388;28;20029;-81
2022/01/02 06:25:39;;;;;;;8.90;4.07;;;;;;;9.35;85.99;101257.53;10454256;28;20549;-82
2022/01/02 06:30:39;;;;;;;13.45;4.38;;;;;;;9.30;86.00;101225.03;10457195;28;20524;-82
2022/01/02 06:35:40;;;;;;;6.25;3.40;;;;;;;9.26;86.26;101189.09;10456915;28;20083;-81
2022/01/02 06:40:41;;;;;;;7.32;3.15;;;;;;;9.11;87.12;101194.34;10456252;28;20144;-81
2022/01/02 06:45:42;;;;;;;7.65;3.05;;;;;;;9.02;87.77;101188.56;10442359;28;20029;-81
2022/01/02 06:50:46;;;;;;;6.77;3.20;;;;;;;9.09;87.26;101162.91;10456165;28;20404;-82
2022/01/02 06:55:49;;;;;;;6.53;3.58;;;;;;;9.16;86.17;101164.16;10455805;28;20109;-81
2022/01/02 07:00:51;;;;;;;6.63;2.85;;;;;;;9.23;85.55;101168.03;10448097;28;20036;-81
2022/01/02 07:05:51;;;;;;;6.47;2.77;;;;;;;9.39;84.05;101160.25;10457900;28;20495;-80
2022/01/02 07:10:52;;;;;;;11.85;4.57;;;;;;;9.46;83.43;101135.41;10436864;28;20053;-81
2022/01/02 07:15:52;;;;;;;8.75;4.25;;;;;;;9.53;82.33;101118.34;10422058;28;20580;-83
2022/01/02 07:20:53;;;;;;;7.22;2.40;;;;;;;9.66;80.84;101079.00;10454406;28;20111;-80
2022/01/02 07:25:53;;;;;;;7.18;2.55;;;;;;;9.72;80.48;101070.63;10452996;28;20059;-81
2022/01/02 07:30:54;;;;;;;7.60;2.72;;;;;;;9.75;80.71;101044.63;10431166;28;20171;-80
2022/01/02 07:35:54;;;;;;;8.70;3.40;;;;;;;9.86;79.12;101020.78;10451496;28;20060;-83
2022/01/02 07:40:55;;;;;;;13.70;3.78;;;;;;;9.98;78.45;101004.00;10455283;28;20458;-81
2022/01/02 07:45:55;;;;;;;7.13;1.98;;;;;;;10.04;77.65;100994.69;10485225;28;20068;-81
2022/01/02 07:50:56;;;;;;;9.93;2.88;;;;;;;10.22;76.00;100979.06;10453360;28;20068;-81
2022/01/02 07:55:56;;;;;;;4.10;1.85;;;;;;;10.29;75.73;100970.72;10451915;28;20102;-81
2022/01/02 08:00:57;;;;;;;5.68;2.30;;;;;;;10.49;75.69;100974.34;10442245;28;20028;-80
2022/01/02 08:05:57;;;;;;;4.30;1.98;;;;;;;10.49;75.62;101007.47;10432687;28;20027;-81
2022/01/02 08:10:58;;;;;;;6.10;2.50;;;;;;;10.56;74.01;101004.34;10450963;28;20084;-80
2022/01/02 08:15:58;;;;;;;4.53;2.15;;;;;;;10.74;74.00;101041.00;10431954;28;20044;-80
2022/01/02 08:21:02;;;;;;;9.10;2.38;;;;;;;10.94;70.79;101062.94;10447497;28;20068;-80
2022/01/02 08:26:02;;;;;;;12.70;2.17;;;;;;;11.08;70.78;101050.50;10438453;28;20033;-81
2022/01/02 08:31:03;;;;;;;5.20;1.55;;;;;;;11.18;68.90;101062.34;10459340;28;20033;-81
2022/01/02 08:36:05;;;;;;;5.50;1.92;;;;;;;11.41;68.33;101057.31;10451349;28;20060;-81
2022/01/02 08:41:05;;;;;;;3.53;1.77;;;;;;;11.43;67.01;101064.41;10486800;28;20540;-82
2022/01/02 08:46:06;;;;;;;5.43;2.17;;;;;;;11.26;68.08;101071.47;10455524;28;20044;-81
2022/01/02 08:51:07;;;;;;;4.60;1.88;;;;;;;11.22;68.06;101068.59;10460074;28;20037;-80
2022/01/02 08:56:07;;;;;;;5.82;2.38;;;;;;;11.23;68.41;101055.59;10460458;28;20041;-80
2022/01/02 09:01:08;;;;;;;5.35;2.20;;;;;;;10.87;72.17;101077.44;10439972;28;20033;-80
2022/01/02 09:06:09;;;;;;;3.20;1.77;;;;;;;11.16;69.56;101057.00;10458437;28;20086;-81
2022/01/02 09:11:10;;;;;;;4.47;2.10;;;;;;;11.49;68.64;101082.16;10460839;28;20078;-81
2022/01/02 09:16:11;;;;;;;4.72;2.75;;;;;;;11.53;68.48;101064.81;10460124;28;20675;-80
2022/01/02 09:21:11;;;;;;;4.88;2.25;;;;;;;11.55;67.72;101074.56;10458461;28;20117;-80
2022/01/02 09:26:12;;;;;;;8.43;3.33;;;;;;;11.64;67.62;101076.72;10458046;28;20033;-81
2022/01/02 09:31:13;;;;;;;6.13;2.17;;;;;;;11.74;67.74;101076.31;10458404;28;20091;-81
2022/01/02 09:36:13;;;;;;;9.82;3.85;;;;;;;11.85;66.54;101089.03;10458105;28;20056;-81
2022/01/02 09:41:14;;;;;;;6.10;3.20;;;;;;;11.81;67.55;101088.00;10480403;28;20577;-80
2022/01/02 09:46:21;;;;;;;8.30;2.97;;;;;;;11.78;67.56;101086.94;10458494;28;20041;-84
2022/01/02 09:51:24;;;;;;;5.43;3.13;;;;;;;11.76;68.39;101097.38;10440118;28;20025;-79
2022/01/02 09:56:25;;;;;;;10.25;3.70;;;;;;;11.74;67.16;101104.28;10457549;28;20039;-86
2022/01/02 10:01:32;;;;;;;6.63;3.60;;;;;;;11.50;69.38;101114.47;10457047;28;20063;-82
2022/01/02 10:06:47;;;;;;;6.43;2.95;;;;;;;11.51;69.02;101116.28;10457053;28;20401;-80
2022/01/02 10:11:47;;;;;;;5.55;3.47;;;;;;;13.44;63.94;101117.72;10424685;28;20458;-78
2022/01/02 10:16:49;;;;;;;6.55;3.58;;;;;;;13.86;61.60;101114.97;10473061;28;20132;-84
2022/01/02 10:22:00;;;;;;;9.27;4.05;;;;;;;14.21;60.86;101096.06;10456890;28;20033;-87
2022/01/02 10:27:18;;;;;;;8.02;3.38;;;;;;;14.50;60.41;101105.03;10475373;28;20029;-83
2022/01/02 10:32:31;;;;;;;8.23;3.83;;;;;;;13.44;63.08;101102.84;10469529;28;20033;-87
2022/01/02 10:37:32;;;;;;;6.65;3.67;;;;;;;12.65;66.70;101112.72;10439547;28;20048;-85
2022/01/02 10:42:39;;;;;;;7.40;4.30;;;;;;;12.22;68.22;101124.84;10448691;28;20037;-88
2022/01/02 10:47:43;;;;;;;9.70;4.30;;;;;;;11.95;69.23;101137.56;10455640;28;20438;-81
2022/01/02 10:52:47;;;;;;;8.30;4.45;;;;;;;11.89;69.70;101119.81;10437337;28;20044;-80
2022/01/02 10:57:52;;;;;;;9.77;3.75;;;;;;;11.94;70.38;101099.06;10462526;28;20427;-81
2022/01/02 11:02:53;;;;;;;;;;;;;;;11.95;70.03;101122.72;10444354;28;20060;-81
2022/01/02 11:07:59;;;;;;;8.68;4.97;;;;;;;11.81;71.26;101105.44;10469339;28;20010;-80
2022/01/02 11:13:00;;;;;;;11.15;4.75;;;;;;;11.67;71.22;101110.94;10452920;28;20045;-81
2022/01/02 11:18:00;;;;;;;14.30;6.25;;;;;;;11.63;71.90;101097.63;10428542;28;20068;-81
2022/01/02 11:23:23;;;;;;;21.48;4.30;;;;;;;11.75;71.81;101092.97;10429064;28;20116;-79
2022/01/02 11:28:30;;;;;;;;;;;;;;;11.91;71.36;101084.06;10445192;28;20033;-78
2022/01/02 11:33:39;;;;;;;11.15;4.55;;;;;;;11.81;71.92;101082.75;10468687;28;19916;-81
2022/01/02 11:38:43;;;;;;;11.05;4.10;;;;;;;11.66;72.63;101088.16;10443047;28;20044;-80
2022/01/02 11:43:51;;;;;;;13.43;6.72;;;;;;;11.68;72.38;101094.38;10458058;28;20029;-80
2022/01/02 11:49:15;;;;;;;18.73;5.30;;;;;;;11.67;73.08;101084.72;10485375;28;20060;-81
2022/01/02 11:54:28;;;;;;;10.80;4.57;;;;;;;11.99;72.27;101080.06;10453882;28;20028;-80
2022/01/02 11:59:43;;;;;;;5.75;3.30;;;;;;;11.98;71.57;101080.00;10453161;28;20037;-79
2022/01/02 12:04:59;;;;;;;7.40;3.55;;;;;;;11.81;72.95;101087.09;10464641;28;20063;-80
2022/01/02 12:10:15;;;;;;;6.35;4.00;;;;;;;11.70;73.16;101078.75;10448400;28;20045;-81
2022/01/02 12:15:17;;;;;;;7.72;3.88;;;;;;;11.61;73.38;101081.81;10453137;28;20543;-80
2022/01/02 12:20:21;;;;;;;8.02;4.72;;;;;;;11.62;74.04;101090.59;10468828;28;20043;-80
2022/01/02 12:25:24;;;;;;;12.00;4.18;;;;;;;11.65;74.09;101089.00;10452398;28;20120;-79
2022/01/02 12:30:24;;;;;;;9.05;4.82;;;;;;;11.71;73.55;101088.41;10451199;28;20040;-79
2022/01/02 12:35:25;;;;;;;11.05;4.97;;;;;;;12.29;72.85;101095.41;10418042;28;20029;-79
2022/01/02 12:40:26;;;;;;;9.98;5.72;;;;;;;13.32;67.97;101086.53;10449903;28;20076;-79
2022/01/02 12:45:26;;;;;;;7.13;3.83;;;;;;;13.10;68.84;101074.28;10452407;28;20033;-80
2022/01/02 12:50:31;;;;;;;10.57;5.50;;;;;;;12.65;70.29;101080.28;10451321;28;20041;-79
2022/01/02 12:55:32;;;;;;;8.52;4.93;;;;;;;12.29;71.43;101078.78;10434884;28;20512;-80
2022/01/02 13:00:32;;;;;;;9.32;3.80;;;;;;;12.12;71.86;101078.94;10485079;28;20120;-79
2022/01/02 13:05:48;;;;;;;9.88;3.83;;;;;;;12.13;71.87;101077.19;10450741;28;20021;-79
2022/01/02 13:10:49;;;;;;;6.22;3.30;;;;;;;12.07;72.41;101067.34;10455357;28;20025;-79
2022/01/02 13:15:49;;;;;;;8.82;3.55;;;;;;;11.97;73.09;101067.72;10431672;28;20496;-80
2022/01/02 13:20:50;;;;;;;11.10;3.97;;;;;;;11.84;73.57;101069.78;10467178;28;20059;-79
2022/01/02 13:25:50;;;;;;;7.85;3.42;;;;;;;11.84;74.01;101074.13;10468537;28;20120;-78
2022/01/02 13:30:52;;;;;;;8.82;5.57;;;;;;;11.82;74.08;101084.56;10451729;28;20047;-79
2022/01/02 13:35:59;;;;;;;9.07;3.30;;;;;;;11.77;74.35;101082.53;10456819;28;20128;-78
2022/01/02 13:41:09;;;;;;;10.88;3.25;;;;;;;11.85;73.80;101084.69;10457972;28;20048;-78
2022/01/02 13:46:09;;;;;;;9.77;3.60;;;;;;;11.78;74.24;101092.19;10458938;28;20175;-84
2022/01/02 13:51:14;;;;;;;8.43;3.97;;;;;;;11.66;75.20;101085.53;10457857;28;20029;-81
2022/01/02 13:56:17;;;;;;;14.27;5.35;;;;;;;11.61;75.13;101084.44;10457178;28;20042;-78
2022/01/02 14:01:29;;;;;;;7.47;3.97;;;;;;;11.60;75.66;101093.13;10457028;28;20025;-79
2022/01/02 14:06:30;;;;;;;;;;;;;;;11.66;75.26;101095.16;10459179;28;20017;-79
2022/01/02 14:11:31;;;;;;;11.43;3.47;;;;;;;11.72;75.47;101100.69;10456242;28;19964;-80
2022/01/02 14:17:15;;;;;;;8.32;4.90;;;;;;;11.75;74.90;101096.47;10455375;28;20580;-79
2022/01/02 14:22:21;;;;;;;5.22;3.10;;;;;;;11.74;74.20;101085.91;10479004;28;20048;-79
2022/01/02 14:27:23;;;;;;;9.63;3.58;;;;;;;11.75;73.36;101087.72;10449770;28;20481;-81
2022/01/02 14:32:23;;;;;;;;;;;;;;;11.74;73.49;101094.66;10441800;28;20021;-80
2022/01/02 14:37:24;;;;;;;7.55;3.75;;;;;;;11.78;72.98;101102.69;10484101;28;19917;-79
2022/01/02 14:42:26;;;;;;;8.88;3.55;;;;;;;11.74;72.82;101101.66;10421230;28;20065;-79
2022/01/02 14:47:26;;;;;;;15.30;3.15;;;;;;;11.77;72.46;101093.94;10456923;28;20065;-80
2022/01/02 14:52:27;;;;;;;6.78;2.95;;;;;;;11.72;73.01;101092.81;10455381;28;20127;-80
2022/01/02 14:57:29;;;;;;;9.40;3.20;;;;;;;11.67;72.97;101094.31;10440217;28;20052;-80
2022/01/02 15:02:30;;;;;;;7.60;4.03;;;;;;;11.60;73.14;101101.91;10438091;28;20036;-80
2022/01/02 15:07:30;;;;;;;6.85;3.05;;;;;;;11.54;73.83;101096.38;10438869;28;20021;-80
2022/01/02 15:12:31;;;;;;;5.57;3.35;;;;;;;11.48;74.21;101097.78;10454174;28;20025;-80
2022/01/02 15:17:31;;;;;;;5.10;2.90;;;;;;;11.37;74.29;101111.28;10455973;28;20104;-80
2022/01/02 15:22:32;;;;;;;6.40;2.53;;;;;;;11.36;73.54;101105.97;10453847;28;20100;-79
2022/01/02 15:27:33;;;;;;;4.72;3.10;;;;;;;11.35;73.11;101101.56;10453520;28;20067;-80
2022/01/02 15:32:34;;;;;;;7.35;3.28;;;;;;;11.28;72.95;101093.41;10455256;28;20021;-80
2022/01/02 15:37:36;;;;;;;3.50;1.85;;;;;;;11.17;72.74;101097.22;10453139;28;20136;-80
2022/01/02 15:42:37;;;;;;;3.85;1.52;;;;;;;11.18;72.22;101099.00;10454173;28;20044;-79
2022/01/02 15:47:38;;;;;;;6.18;2.33;;;;;;;11.14;72.66;101099.69;10436327;28;20034;-80
2022/01/02 15:52:38;;;;;;;7.93;3.85;;;;;;;10.98;73.64;101103.25;10453266;28;20059;-80
2022/01/02 15:57:39;;;;;;;5.07;2.03;;;;;;;10.95;73.61;101096.16;10435770;28;20040;-80
2022/01/02 16:02:40;;;;;;;5.20;2.40;;;;;;;10.98;74.02;101092.78;10473195;28;20094;-78
2022/01/02 16:07:42;;;;;;;6.80;2.92;;;;;;;10.82;74.63;101086.78;10451940;28;20379;-79
2022/01/02 16:12:43;;;;;;;5.43;2.35;;;;;;;10.54;75.62;101076.66;10483566;28;20048;-79
2022/01/02 16:17:43;;;;;;;6.72;2.70;;;;;;;10.51;76.12;101068.63;10473020;28;20036;-78
2022/01/02 16:22:44;;;;;;;9.18;2.65;;;;;;;10.43;76.86;101065.63;10469276;28;20055;-78
2022/01/02 16:27:45;;;;;;;10.13;3.45;;;;;;;10.45;78.00;101063.97;10474933;28;20017;-78
2022/01/02 16:32:45;;;;;;;16.38;3.60;;;;;;;10.66;77.42;101060.66;10468011;28;20029;-78
2022/01/02 16:37:46;;;;;;;7.93;2.85;;;;;;;10.84;77.07;101045.84;10456774;28;20552;-79
2022/01/02 16:42:46;;;;;;;8.70;4.93;;;;;;;10.84;77.02;101043.25;10483619;28;20075;-79
2022/01/02 16:47:47;;;;;;;7.45;3.72;;;;;;;10.84;77.91;101039.75;10468952;28;20029;-78
2022/01/02 16:52:48;;;;;;;10.38;6.50;;;;;;;10.61;80.70;101052.59;10469058;28;20079;-78
2022/01/02 16:57:49;;;;;;;11.60;4.18;;;;;;;10.31;82.88;101052.78;10473548;28;20055;-79
2022/01/02 17:02:51;;;;;;;8.15;3.65;;;;;;;10.12;84.06;101062.28;10499611;28;20104;-79
2022/01/02 17:07:52;;;;;;;9.02;3.55;;;;;;;10.04;84.17;101053.13;10442967;28;20411;-79
2022/01/02 17:12:52;;;;;;;14.50;5.53;;;;;;;9.96;84.50;101039.63;10474836;28;20065;-79
2022/01/02 17:17:54;;;;;;;8.82;3.85;;;;;;;9.99;84.58;101042.41;10437899;28;20473;-79
2022/01/02 17:22:54;;;;;;;9.43;3.43;;;;;;;9.94;84.74;101029.94;10472296;28;20044;-78
2022/01/02 17:27:55;;;;;;;7.47;4.00;;;;;;;9.92;85.38;101028.97;10478068;28;20035;-78
2022/01/02 17:32:56;;;;;;;10.68;4.90;;;;;;;9.82;86.79;101011.88;10474895;28;20491;-78
2022/01/02 17:37:56;;;;;;;15.63;5.38;;;;;;;9.60;88.08;101026.41;10460206;28;20120;-78
2022/01/02 17:42:57;;;;;;;11.77;5.10;;;;;;;9.49;88.89;101046.72;10461430;28;20563;-79
2022/01/02 17:47:57;;;;;;;10.73;6.82;;;;;;;9.39;89.59;101045.31;10474405;28;20041;-78
2022/01/02 17:52:58;;;;;;;10.95;6.43;;;;;;;9.37;89.98;101033.00;10475765;28;20045;-77
2022/01/02 17:57:58;;;;;;;12.18;6.85;;;;;;;9.28;90.58;101041.22;10451466;28;20064;-77
2022/01/02 18:02:59;;;;;;;13.07;7.38;;;;;;;9.28;90.86;101032.50;10478116;28;20059;-78
2022/01/02 18:07:59;;;;;;;12.88;6.78;;;;;;;9.34;91.14;101025.00;10473340;28;20120;-78
2022/01/02 18:13:00;;;;;;;16.25;7.10;;;;;;;9.28;91.25;101006.38;10474356;28;20397;-80
2022/01/02 18:18:01;;;;;;;14.77;7.60;;;;;;;9.20;91.78;100996.41;10483310;28;20048;-78
2022/01/02 18:23:05;;;;;;;13.43;8.60;;;;;;;9.10;91.58;100994.97;10486531;28;20064;-79
2022/01/02 18:28:05;;;;;;;18.27;7.13;;;;;;;9.08;91.91;100974.84;10456391;28;20025;-79
2022/01/02 18:33:06;;;;;;;20.88;5.18;;;;;;;9.02;91.86;100966.66;10477486;28;20531;-81
2022/01/02 18:38:10;;;;;;;9.25;6.13;;;;;;;8.90;91.41;100959.94;10497249;28;20102;-81
2022/01/02 18:43:10;;;;;;;8.93;3.83;;;;;;;8.71;91.32;100937.13;10464380;28;20393;-81
2022/01/02 18:48:11;;;;;;;6.43;3.20;;;;;;;8.62;91.77;100932.28;10483116;28;20035;-83
2022/01/02 18:53:11;;;;;;;15.20;3.90;;;;;;;8.60;92.26;100938.22;10487136;28;20081;-81
2022/01/02 18:58:12;;;;;;;11.05;3.20;;;;;;;8.65;91.84;100923.72;10454800;28;20095;-82
2022/01/02 19:03:12;;;;;;;10.77;4.80;;;;;;;8.73;92.17;100912.00;10459157;28;20451;-80
2022/01/02 19:08:13;;;;;;;9.23;5.10;;;;;;;8.73;92.28;100924.16;10479254;28;20068;-81
2022/01/02 19:13:13;;;;;;;8.85;3.40;;;;;;;8.87;91.90;100933.66;10445333;28;20063;-82
2022/01/02 19:18:14;;;;;;;6.78;4.82;;;;;;;8.81;92.48;100920.28;10447752;28;20020;-82
2022/01/02 19:23:14;;;;;;;10.50;6.38;;;;;;;8.77;92.57;100945.28;10476678;28;20039;-81
2022/01/02 19:28:15;;;;;;;9.70;4.70;;;;;;;8.69;92.25;100876.13;10448439;28;20105;-84
2022/01/02 19:33:15;;;;;;;5.53;2.67;;;;;;;8.63;92.94;100951.44;10452080;28;20061;-86
2022/01/02 19:38:16;;;;;;;9.80;3.40;;;;;;;8.65;92.88;100944.59;10453180;28;20107;-85
2022/01/02 19:43:16;;;;;;;3.97;1.88;;;;;;;8.57;92.00;100865.00;10482350;28;20040;-86
2022/01/02 19:48:17;;;;;;;1.85;0.82;;;;;;;8.34;89.77;100849.84;10480305;28;20392;-85
2022/01/02 19:53:17;;;;;;;5.35;1.00;;;;;;;8.18;89.68;100834.13;10474116;28;20392;-90
2022/01/02 19:58:18;;;;;;;2.60;0.50;;;;;;;8.00;89.22;100847.00;10476886;28;20071;-85
2022/01/02 20:03:19;;;;;;;2.05;0.68;;;;;;;7.93;89.34;100850.97;10474449;28;20504;-85
2022/01/02 20:08:19;;;;;;;1.38;0.50;;;;;;;8.02;87.97;100858.41;10451205;28;20057;-87
2022/01/02 20:13:30;;;;;;;1.27;0.43;;;;;;;8.11;86.59;100868.50;10471571;28;20016;-86
2022/01/02 20:18:31;;;;;;;1.02;0.40;;;;;;;8.05;87.01;100863.81;10453718;28;20031;-84
2022/01/02 20:23:32;;;;;;;0.43;0.40;;;;;;;7.75;87.64;100875.16;10471060;28;20032;-83
2022/01/02 20:28:32;;;;;;;2.53;0.77;;;;;;;7.58;88.05;100878.47;10435587;28;20119;-85
2022/01/02 20:33:34;;;;;;;1.80;0.85;;;;;;;7.49;88.28;100884.00;10478752;28;20029;-86
2022/01/02 20:38:35;;;;;;;3.63;1.23;;;;;;;7.53;89.84;100887.69;10467089;28;20067;-85
2022/01/02 20:43:36;;;;;;;3.75;1.08;;;;;;;7.73;89.50;100892.41;10484739;28;20025;-83
2022/01/02 20:48:36;;;;;;;8.50;1.45;;;;;;;7.94;89.83;100881.44;10444983;28;20041;-84
2022/01/02 20:53:37;;;;;;;4.53;1.42;;;;;;;8.11;89.38;100885.00;10469867;28;20032;-84
2022/01/02 20:58:38;;;;;;;5.78;1.65;;;;;;;8.33;89.22;100881.03;10458522;28;20423;-83
2022/01/02 21:03:41;;;;;;;5.97;1.95;;;;;;;8.51;89.27;100879.50;10489411;28;20017;-84
2022/01/02 21:08:44;;;;;;;3.42;1.45;;;;;;;8.59;89.47;100876.41;10477364;28;20071;-83
2022/01/02 21:13:47;;;;;;;5.88;2.53;;;;;;;8.69;89.36;100888.28;10487930;28;20032;-84
2022/01/02 21:18:47;;;;;;;9.57;3.63;;;;;;;8.74;88.41;100890.31;10474482;28;20041;-84
2022/01/02 21:23:48;;;;;;;10.30;2.88;;;;;;;8.74;88.31;100905.97;10472067;28;20060;-83
2022/01/02 21:28:48;;;;;;;7.93;3.53;;;;;;;8.76;87.74;100901.75;10470006;28;20068;-83
2022/01/02 21:33:49;;;;;;;7.93;2.88;;;;;;;8.75;87.73;100910.38;10478146;28;20052;-84
2022/01/02 21:38:49;;;;;;;7.28;2.70;;;;;;;8.67;88.13;100937.75;10440651;28;20128;-83
2022/01/02 21:43:50;;;;;;;12.50;2.58;;;;;;;8.57;88.00;100944.19;10444625;28;20043;-83
2022/01/02 21:48:50;;;;;;;13.40;3.75;;;;;;;8.56;87.40;100947.59;10456958;28;20029;-82
2022/01/02 21:53:53;;;;;;;11.25;2.42;;;;;;;8.60;86.87;100946.97;10474222;28;20441;-81
2022/01/02 21:58:53;;;;;;;10.45;4.30;;;;;;;8.65;86.69;100962.88;10462850;28;20115;-83
2022/01/02 22:03:55;;;;;;;10.70;3.13;;;;;;;8.69;86.14;100970.06;10472505;28;20025;-81
2022/01/02 22:08:58;;;;;;;13.80;3.65;;;;;;;8.53;87.63;100973.50;10457713;28;20033;-82
2022/01/02 22:13:59;;;;;;;13.15;2.92;;;;;;;8.41;88.41;100984.09;10458101;28;20037;-83
2022/01/02 22:18:59;;;;;;;9.35;3.60;;;;;;;8.29;88.84;100993.78;10473996;28;20021;-83
2022/01/02 22:24:07;;;;;;;8.75;2.95;;;;;;;8.06;89.09;101015.09;10491143;28;20057;-82
2022/01/02 22:29:08;;;;;;;12.45;3.08;;;;;;;8.04;89.30;101018.41;10444734;28;20118;-82
2022/01/02 22:34:08;;;;;;;12.70;3.35;;;;;;;8.11;89.22;101022.31;10455429;28;20067;-82
2022/01/02 22:39:09;;;;;;;17.90;4.30;;;;;;;8.32;88.12;101020.97;10476261;28;20049;-82
2022/01/02 22:44:09;;;;;;;11.07;3.72;;;;;;;8.50;86.79;101015.06;10480955;28;20071;-82
2022/01/02 22:49:10;;;;;;;17.45;4.05;;;;;;;8.56;86.17;101028.47;10474437;28;20057;-81
2022/01/02 22:54:12;;;;;;;12.32;3.72;;;;;;;8.45;85.71;101022.56;10462160;28;20152;-81
2022/01/02 22:59:12;;;;;;;;;;;;;;;8.45;85.73;101047.78;10458214;28;20495;-81
2022/01/02 23:04:13;;;;;;;12.80;3.72;;;;;;;8.32;86.17;101048.75;10470304;28;19924;-81
2022/01/02 23:09:13;;;;;;;11.32;5.32;;;;;;;8.26;85.22;101046.69;10458514;28;20064;-82
2022/01/02 23:14:14;;;;;;;24.08;5.70;;;;;;;8.26;85.65;101061.41;10498130;28;20073;-81